createdAt,value
2019-04-20T00:00:06.726Z,11.63
2019-04-20T00:02:57.140Z,11.23
2019-04-20T00:05:46.339Z,11.53
2019-04-20T00:08:38.208Z,10.07
2019-04-20T00:11:35.380Z,10.23
2019-04-20T00:14:24.046Z,13.13
2019-04-20T00:17:09.511Z,9.93
2019-04-20T00:20:00.406Z,10.47
2019-04-20T00:23:07.917Z,10.73
2019-04-20T00:26:44.257Z,10.67
2019-04-20T00:29:29.731Z,10.40
2019-04-20T00:32:14.429Z,11.53
2019-04-20T00:34:55.863Z,10.67
2019-04-20T00:37:46.454Z,10.87
2019-04-20T00:40:37.313Z,11.30
2019-04-20T00:43:31.117Z,14.77
2019-04-20T00:46:24.971Z,11.80
2019-04-20T00:49:15.176Z,11.77
2019-04-20T00:52:18.844Z,10.20
2019-04-20T00:54:41.417Z,11.87
2019-04-20T00:57:40.681Z,11.33
2019-04-20T01:00:37.155Z,11.13
2019-04-20T01:03:27.650Z,14.70
2019-04-20T01:06:31.874Z,16.37
2019-04-20T01:09:28.802Z,11.93
2019-04-20T01:12:24.230Z,14.07
2019-04-20T01:15:11.817Z,14.67
2019-04-20T01:18:00.211Z,18.47
2019-04-20T01:20:49.741Z,11.37
2019-04-20T01:23:46.123Z,14.50
2019-04-20T01:26:29.409Z,13.03
2019-04-20T01:29:27.984Z,11.63
2019-04-20T01:32:24.711Z,12.17
2019-04-20T01:35:13.231Z,12.37
2019-04-20T01:38:12.613Z,13.80
2019-04-20T01:40:42.252Z,12.77
2019-04-20T01:43:31.246Z,15.73
2019-04-20T01:46:18.952Z,13.67
2019-04-20T01:49:10.984Z,13.17
2019-04-20T01:52:03.811Z,13.40
2019-04-20T01:55:06.397Z,12.00
2019-04-20T01:57:59.887Z,13.00
2019-04-20T02:00:55.619Z,11.70
2019-04-20T02:04:00.216Z,13.20
2019-04-20T02:06:53.968Z,11.80
2019-04-20T02:09:47.499Z,12.73
2019-04-20T02:12:34.254Z,12.30
2019-04-20T02:15:04.772Z,12.90
2019-04-20T02:18:08.866Z,15.00
2019-04-20T02:21:02.246Z,18.47
2019-04-20T02:23:44.051Z,15.93
2019-04-20T02:26:24.004Z,12.27
2019-04-20T02:29:37.472Z,16.00
2019-04-20T02:32:30.438Z,14.13
2019-04-20T02:35:53.521Z,13.43
2019-04-20T02:39:13.672Z,12.53
2019-04-20T02:41:52.897Z,13.63
2019-04-20T02:47:35.045Z,12.90
2019-04-20T02:53:27.486Z,14.20
2019-04-20T02:55:57.684Z,13.33
2019-04-20T02:58:54.014Z,14.10
2019-04-20T03:01:53.222Z,15.30
2019-04-20T03:04:32.636Z,13.50
2019-04-20T03:07:29.537Z,13.00
2019-04-20T03:10:24.992Z,13.90
2019-04-20T03:13:14.384Z,14.00
2019-04-20T03:16:08.711Z,13.20
2019-04-20T03:18:50.559Z,13.90
2019-04-20T03:21:52.665Z,15.30
2019-04-20T03:24:53.983Z,13.40
2019-04-20T03:27:42.419Z,12.40
2019-04-20T03:34:03.388Z,13.83
2019-04-20T03:36:39.779Z,14.17
2019-04-20T03:39:17.636Z,13.77
2019-04-20T03:41:52.000Z,13.70
2019-04-20T03:44:39.453Z,13.10
2019-04-20T03:47:40.796Z,17.00
2019-04-20T03:50:42.400Z,15.33
2019-04-20T03:53:35.444Z,13.10
2019-04-20T03:56:39.017Z,13.40
2019-04-20T03:59:33.816Z,13.50
2019-04-20T04:02:54.589Z,15.40
2019-04-20T04:05:40.792Z,13.77
2019-04-20T04:08:26.591Z,15.80
2019-04-20T04:11:21.594Z,16.00
2019-04-20T04:13:54.657Z,16.17
2019-04-20T04:16:49.748Z,15.07
2019-04-20T04:19:38.168Z,16.67
2019-04-20T04:22:47.745Z,14.50
2019-04-20T04:25:29.785Z,15.30
2019-04-20T04:28:23.849Z,14.83
2019-04-20T04:31:16.018Z,16.83
2019-04-20T04:34:25.046Z,14.70
2019-04-20T04:37:00.603Z,16.10
2019-04-20T04:39:50.629Z,15.47
2019-04-20T04:42:42.345Z,16.33
2019-04-20T04:45:12.868Z,17.17
2019-04-20T04:47:59.878Z,14.73
2019-04-20T04:50:57.341Z,14.27
2019-04-20T04:53:47.820Z,14.67
2019-04-20T04:56:30.798Z,15.03
2019-04-20T04:59:21.315Z,13.60
2019-04-20T05:02:11.716Z,13.90
2019-04-20T05:05:35.950Z,13.80
2019-04-20T05:08:16.333Z,14.63
2019-04-20T05:10:56.202Z,13.90
2019-04-20T05:13:55.976Z,14.50
2019-04-20T05:16:50.099Z,14.70
2019-04-20T05:19:47.817Z,18.93
2019-04-20T05:22:41.670Z,15.30
2019-04-20T05:25:56.908Z,16.60
2019-04-20T05:28:40.514Z,14.80
2019-04-20T05:31:18.574Z,15.17
2019-04-20T05:34:30.538Z,20.10
2019-04-20T05:37:29.752Z,17.03
2019-04-20T05:40:10.729Z,16.47
2019-04-20T05:43:13.149Z,16.10
2019-04-20T05:45:56.203Z,20.80
2019-04-20T05:48:58.960Z,15.97
2019-04-20T05:51:49.849Z,20.80
2019-04-20T05:54:38.828Z,19.43
2019-04-20T05:57:31.957Z,20.67
2019-04-20T06:00:21.502Z,19.10
2019-04-20T06:03:05.595Z,17.23
2019-04-20T06:06:05.130Z,20.30
2019-04-20T06:08:57.073Z,18.90
2019-04-20T06:11:44.885Z,17.43
2019-04-20T06:14:44.241Z,20.70
2019-04-20T06:17:52.846Z,18.63
2019-04-20T06:20:45.353Z,18.00
2019-04-20T06:23:47.167Z,18.77
2019-04-20T06:26:49.496Z,20.57
2019-04-20T06:29:33.316Z,19.97
2019-04-20T06:32:28.927Z,18.10
2019-04-20T06:35:25.944Z,16.90
2019-04-20T06:38:10.265Z,21.33
2019-04-20T06:41:10.521Z,19.00
2019-04-20T06:43:45.904Z,20.13
2019-04-20T06:46:36.287Z,17.47
2019-04-20T06:49:31.444Z,17.90
2019-04-20T06:55:14.128Z,21.03
2019-04-20T06:58:17.572Z,19.67
2019-04-20T07:01:03.856Z,17.43
2019-04-20T07:04:04.250Z,19.80
2019-04-20T07:06:45.277Z,16.63
2019-04-20T07:09:21.694Z,14.90
2019-04-20T07:12:03.024Z,18.10
2019-04-20T07:14:49.014Z,14.67
2019-04-20T07:18:03.006Z,15.30
2019-04-20T07:21:00.608Z,13.33
2019-04-20T07:23:54.328Z,14.27
2019-04-20T07:26:46.399Z,15.63
2019-04-20T07:29:43.276Z,13.50
2019-04-20T07:32:17.749Z,11.57
2019-04-20T07:35:14.237Z,13.87
2019-04-20T07:38:30.050Z,12.10
2019-04-20T07:40:56.062Z,12.27
2019-04-20T07:43:57.479Z,16.73
2019-04-20T07:46:47.261Z,14.80
2019-04-20T07:49:32.512Z,14.00
2019-04-20T07:51:59.601Z,12.47
2019-04-20T07:55:27.328Z,13.80
2019-04-20T07:57:53.738Z,14.17
2019-04-20T08:01:05.727Z,14.37
2019-04-20T08:03:55.756Z,11.87
2019-04-20T08:06:36.799Z,14.70
2019-04-20T08:09:28.863Z,10.77
2019-04-20T08:12:41.654Z,11.83
2019-04-20T08:15:52.502Z,13.80
2019-04-20T08:18:27.613Z,11.37
2019-04-20T08:21:16.249Z,12.53
2019-04-20T08:24:00.933Z,10.00
2019-04-20T08:26:42.046Z,13.20
2019-04-20T08:29:45.146Z,12.67
2019-04-20T08:33:09.927Z,10.90
2019-04-20T08:35:50.980Z,16.43
2019-04-20T08:38:55.927Z,13.53
2019-04-20T08:41:02.889Z,12.83
2019-04-20T08:43:47.146Z,10.07
2019-04-20T08:46:19.494Z,11.70
2019-04-20T08:48:46.881Z,15.07
2019-04-20T08:51:43.030Z,10.60
2019-04-20T08:54:11.206Z,10.37
2019-04-20T08:56:31.892Z,12.07
2019-04-20T08:58:59.598Z,10.50
2019-04-20T09:01:35.761Z,11.13
2019-04-20T09:04:35.970Z,10.73
2019-04-20T09:07:19.988Z,9.00
2019-04-20T09:10:12.321Z,12.10
2019-04-20T09:12:43.623Z,16.13
2019-04-20T09:14:57.109Z,12.20
2019-04-20T09:17:41.004Z,9.03
2019-04-20T09:20:31.843Z,12.10
2019-04-20T09:23:26.773Z,9.80
2019-04-20T09:26:23.112Z,11.20
2019-04-20T09:29:09.060Z,9.70
2019-04-20T09:32:11.417Z,15.30
2019-04-20T09:34:51.288Z,11.03
2019-04-20T09:37:29.640Z,11.43
2019-04-20T09:40:25.561Z,10.67
2019-04-20T09:43:04.573Z,15.37
2019-04-20T09:45:55.477Z,9.43
2019-04-20T09:48:33.002Z,9.80
2019-04-20T09:51:30.725Z,10.03
2019-04-20T09:54:23.044Z,10.37
2019-04-20T09:57:13.764Z,9.10
2019-04-20T10:00:01.790Z,9.33
2019-04-20T10:02:39.062Z,10.40
2019-04-20T10:05:25.875Z,11.93
2019-04-20T10:08:15.524Z,9.77
2019-04-20T10:11:05.665Z,10.70
2019-04-20T10:13:54.370Z,13.20
2019-04-20T10:16:44.157Z,8.83
2019-04-20T10:19:35.716Z,8.80
2019-04-20T10:22:12.922Z,10.27
2019-04-20T10:25:02.649Z,9.30
2019-04-20T10:27:52.085Z,11.70
2019-04-20T10:30:41.438Z,11.67
2019-04-20T10:33:31.322Z,10.77
2019-04-20T10:36:48.726Z,8.70
2019-04-20T10:39:40.552Z,8.43
2019-04-20T10:42:30.125Z,11.93
2019-04-20T10:45:19.360Z,11.77
2019-04-20T10:48:08.974Z,10.47
2019-04-20T10:50:58.949Z,10.80
2019-04-20T10:53:48.700Z,10.93
2019-04-20T10:56:39.359Z,9.07
2019-04-20T10:59:29.706Z,7.40
2019-04-20T11:02:19.559Z,6.80
2019-04-20T11:05:08.671Z,8.60
2019-04-20T11:07:58.792Z,6.73
2019-04-20T11:10:58.970Z,7.87
2019-04-20T11:13:39.371Z,7.60
2019-04-20T11:16:28.822Z,8.20
2019-04-20T11:19:18.991Z,7.40
2019-04-20T11:22:08.712Z,7.97
2019-04-20T11:24:58.551Z,8.87
2019-04-20T11:27:48.309Z,7.33
2019-04-20T11:30:38.286Z,8.83
2019-04-20T11:33:27.816Z,9.73
2019-04-20T11:36:17.172Z,9.40
2019-04-20T11:39:11.242Z,9.73
2019-04-20T11:42:01.603Z,7.53
2019-04-20T11:44:52.891Z,8.23
2019-04-20T11:47:43.292Z,9.97
2019-04-20T11:50:33.665Z,9.60
2019-04-20T11:53:26.510Z,8.03
2019-04-20T11:56:20.539Z,9.80
2019-04-20T11:59:05.304Z,9.13
2019-04-20T12:02:29.498Z,12.10
2019-04-20T12:05:24.643Z,7.87
2019-04-20T12:08:07.281Z,9.50
2019-04-20T12:10:59.517Z,8.00
2019-04-20T12:13:46.879Z,8.10
2019-04-20T12:16:37.447Z,7.33
2019-04-20T12:19:27.034Z,14.50
2019-04-20T12:22:17.926Z,8.77
2019-04-20T12:25:07.946Z,7.50
2019-04-20T12:28:00.310Z,8.23
2019-04-20T12:30:48.159Z,9.03
2019-04-20T12:33:37.435Z,8.83
2019-04-20T12:36:28.041Z,7.90
2019-04-20T12:39:17.314Z,8.97
2019-04-20T12:42:09.369Z,11.10
2019-04-20T12:44:57.777Z,9.33
2019-04-20T12:47:49.721Z,10.93
2019-04-20T12:50:37.451Z,9.13
2019-04-20T12:53:26.512Z,16.83
2019-04-20T12:56:16.911Z,11.43
2019-04-20T12:59:07.488Z,8.23
2019-04-20T13:01:57.476Z,8.73
2019-04-20T13:04:47.224Z,8.27
2019-04-20T13:07:44.319Z,10.10
2019-04-20T13:10:29.538Z,8.97
2019-04-20T13:13:30.443Z,10.10
2019-04-20T13:16:32.350Z,8.87
2019-04-20T13:19:21.440Z,7.40
2019-04-20T13:22:10.875Z,9.00
2019-04-20T13:25:01.110Z,8.73
2019-04-20T13:27:50.810Z,7.67
2019-04-20T13:30:39.758Z,10.53
2019-04-20T13:33:31.371Z,11.03
2019-04-20T13:36:20.272Z,11.03
2019-04-20T13:39:10.140Z,12.10
2019-04-20T13:42:08.733Z,15.33
2019-04-20T13:44:50.871Z,13.60
2019-04-20T13:47:41.039Z,10.30
2019-04-20T13:50:31.659Z,11.50
2019-04-20T13:53:21.182Z,9.63
2019-04-20T13:56:11.838Z,9.47
2019-04-20T13:59:07.929Z,12.10
2019-04-20T14:02:18.987Z,15.53
2019-04-20T14:05:10.615Z,10.23
2019-04-20T14:08:05.175Z,10.70
2019-04-20T14:10:55.689Z,12.93
2019-04-20T14:13:53.584Z,10.30
2019-04-20T14:16:36.890Z,11.00
2019-04-20T14:19:27.204Z,10.67
2019-04-20T14:22:16.747Z,11.60
2019-04-20T14:25:07.031Z,11.40
2019-04-20T14:27:57.258Z,9.83
2019-04-20T14:30:47.860Z,9.87
2019-04-20T14:33:37.197Z,12.03
2019-04-20T14:36:26.804Z,13.13
2019-04-20T14:39:16.220Z,11.53
2019-04-20T14:42:06.599Z,12.00
2019-04-20T14:44:55.998Z,11.63
2019-04-20T14:47:45.868Z,12.33
2019-04-20T14:50:35.881Z,12.90
2019-04-20T14:53:25.341Z,22.30
2019-04-20T14:56:15.649Z,15.53
2019-04-20T14:59:09.265Z,10.10
2019-04-20T15:02:13.147Z,11.43
2019-04-20T15:05:03.235Z,12.30
2019-04-20T15:07:52.298Z,11.93
2019-04-20T15:10:42.717Z,11.57
2019-04-20T15:13:32.945Z,11.90
2019-04-20T15:16:22.556Z,13.30
2019-04-20T15:19:33.633Z,14.23
2019-04-20T15:22:29.793Z,12.53
2019-04-20T15:25:19.655Z,11.17
2019-04-20T15:28:10.147Z,11.53
2019-04-20T15:31:00.493Z,13.77
2019-04-20T15:33:50.843Z,9.60
2019-04-20T15:36:40.205Z,10.63
2019-04-20T15:39:30.505Z,10.50
2019-04-20T15:42:19.387Z,13.70
2019-04-20T15:45:09.415Z,11.47
2019-04-20T15:47:59.600Z,11.40
2019-04-20T15:50:49.790Z,9.33
2019-04-20T15:53:39.810Z,11.27
2019-04-20T15:56:29.120Z,10.60
2019-04-20T15:59:18.559Z,10.37
2019-04-20T16:02:23.097Z,12.53
2019-04-20T16:05:30.788Z,14.20
2019-04-20T16:08:28.203Z,10.67
2019-04-20T16:11:17.504Z,13.83
2019-04-20T16:14:07.247Z,12.07
2019-04-20T16:16:58.186Z,11.17
2019-04-20T16:19:58.720Z,11.20
2019-04-20T16:22:38.575Z,10.97
2019-04-20T16:25:37.324Z,10.70
2019-04-20T16:28:27.879Z,13.50
2019-04-20T16:31:18.213Z,10.23
2019-04-20T16:34:07.791Z,14.13
2019-04-20T16:36:58.645Z,17.23
2019-04-20T16:39:48.395Z,12.30
2019-04-20T16:42:20.216Z,10.30
2019-04-20T16:45:09.771Z,11.50
2019-04-20T16:48:01.583Z,10.80
2019-04-20T16:50:51.026Z,10.87
2019-04-20T16:53:39.762Z,12.30
2019-04-20T16:56:30.661Z,10.97
2019-04-20T16:59:21.257Z,13.73
2019-04-20T17:02:13.318Z,14.70
2019-04-20T17:05:01.449Z,13.27
2019-04-20T17:07:51.156Z,11.60
2019-04-20T17:10:41.025Z,13.30
2019-04-20T17:13:37.957Z,17.67
2019-04-20T17:16:21.854Z,10.80
2019-04-20T17:19:11.582Z,12.60
2019-04-20T17:22:01.253Z,12.13
2019-04-20T17:24:51.499Z,12.00
2019-04-20T17:28:15.013Z,19.40
2019-04-20T17:31:39.693Z,11.70
2019-04-20T17:34:44.353Z,11.57
2019-04-20T17:37:20.619Z,15.20
2019-04-20T17:40:32.394Z,11.37
2019-04-20T17:43:09.258Z,11.87
2019-04-20T17:45:59.567Z,12.10
2019-04-20T17:48:59.126Z,14.17
2019-04-20T17:51:58.145Z,16.47
2019-04-20T17:54:37.767Z,12.60
2019-04-20T17:57:26.603Z,14.00
2019-04-20T18:00:39.565Z,14.67
2019-04-20T18:03:59.025Z,12.70
2019-04-20T18:06:31.589Z,14.73
2019-04-20T18:09:25.465Z,17.23
2019-04-20T18:12:04.435Z,12.97
2019-04-20T18:15:00.695Z,14.13
2019-04-20T18:18:15.953Z,15.67
2019-04-20T18:21:10.787Z,16.00
2019-04-20T18:24:00.470Z,20.30
2019-04-20T18:27:07.187Z,16.90
2019-04-20T18:29:58.421Z,22.20
2019-04-20T18:32:33.773Z,18.00
2019-04-20T18:35:28.900Z,14.23
2019-04-20T18:38:00.922Z,14.17
2019-04-20T18:40:55.721Z,18.70
2019-04-20T18:43:44.447Z,16.70
2019-04-20T18:46:58.692Z,16.10
2019-04-20T18:49:36.066Z,17.17
2019-04-20T18:51:57.754Z,19.97
2019-04-20T18:54:40.150Z,16.93
2019-04-20T18:57:28.950Z,21.30
2019-04-20T19:00:22.572Z,19.90
2019-04-20T19:02:52.637Z,18.43
2019-04-20T19:05:22.007Z,18.97
2019-04-20T19:08:13.712Z,16.87
2019-04-20T19:11:06.811Z,17.00
2019-04-20T19:14:31.296Z,16.90
2019-04-20T19:17:49.887Z,16.77
2019-04-20T19:20:35.096Z,16.80
2019-04-20T19:23:25.133Z,18.00
2019-04-20T19:26:20.575Z,23.17
2019-04-20T19:29:15.666Z,22.33
2019-04-20T19:32:15.780Z,21.83
2019-04-20T19:34:54.922Z,23.70
2019-04-20T19:37:26.012Z,26.43
2019-04-20T19:40:18.283Z,23.30
2019-04-20T19:43:11.113Z,33.03
2019-04-20T19:46:29.726Z,27.50
2019-04-20T19:48:51.473Z,30.60
2019-04-20T19:51:55.684Z,25.70
2019-04-20T19:54:41.436Z,30.30
2019-04-20T19:57:32.271Z,25.00
2019-04-20T20:00:04.654Z,24.07
2019-04-20T20:02:54.319Z,19.93
2019-04-20T20:05:48.013Z,23.77
2019-04-20T20:08:36.406Z,20.13
2019-04-20T20:11:30.378Z,28.20
2019-04-20T20:14:19.249Z,21.57
2019-04-20T20:17:28.485Z,23.80
2019-04-20T20:20:28.893Z,25.43
2019-04-20T20:22:51.926Z,22.07
2019-04-20T20:25:44.637Z,22.50
2019-04-20T20:28:39.607Z,22.87
2019-04-20T20:31:33.548Z,25.13
2019-04-20T20:34:16.734Z,22.73
2019-04-20T20:37:00.595Z,23.97
2019-04-20T20:39:57.003Z,21.10
2019-04-20T20:42:52.676Z,16.67
2019-04-20T20:45:34.993Z,21.20
2019-04-20T20:48:34.843Z,22.40
2019-04-20T20:51:35.449Z,22.20
2019-04-20T20:54:10.728Z,26.10
2019-04-20T20:57:01.375Z,25.10
2019-04-20T20:59:54.819Z,22.37
2019-04-20T21:02:43.507Z,23.30
2019-04-20T21:05:23.902Z,21.37
2019-04-20T21:08:13.569Z,18.80
2019-04-20T21:11:04.794Z,21.00
2019-04-20T21:13:57.450Z,20.93
2019-04-20T21:16:52.194Z,21.83
2019-04-20T21:19:55.044Z,22.60
2019-04-20T21:22:50.342Z,23.10
2019-04-20T21:25:26.360Z,24.70
2019-04-20T21:28:13.144Z,21.23
2019-04-20T21:31:10.122Z,20.23
2019-04-20T21:33:53.481Z,25.43
2019-04-20T21:36:43.192Z,30.33
2019-04-20T21:39:40.996Z,23.20
2019-04-20T21:42:25.234Z,21.97
2019-04-20T21:45:20.033Z,24.00
2019-04-20T21:48:11.475Z,24.63
2019-04-20T21:51:08.585Z,20.10
2019-04-20T21:53:46.280Z,22.50
2019-04-20T21:56:38.314Z,22.57
2019-04-20T21:59:32.155Z,26.93
2019-04-20T22:02:21.663Z,23.87
2019-04-20T22:05:09.471Z,24.33
2019-04-20T22:08:03.271Z,25.00
2019-04-20T22:10:50.282Z,22.23
2019-04-20T22:13:42.679Z,23.00
2019-04-20T22:16:37.627Z,23.53
2019-04-20T22:19:30.706Z,25.00
2019-04-20T22:22:25.364Z,22.53
2019-04-20T22:25:23.753Z,29.00
2019-04-20T22:27:54.127Z,21.50
2019-04-20T22:30:43.956Z,25.60
2019-04-20T22:33:39.414Z,22.43
2019-04-20T22:36:35.583Z,22.13
2019-04-20T22:39:32.171Z,25.03
2019-04-20T22:42:20.357Z,29.00
2019-04-20T22:45:12.262Z,25.20
2019-04-20T22:48:06.701Z,26.50
2019-04-20T22:51:12.307Z,22.20
2019-04-20T22:53:49.792Z,23.37
2019-04-20T22:56:48.463Z,24.27
2019-04-20T22:59:30.243Z,22.13
2019-04-20T23:02:13.601Z,21.53
2019-04-20T23:05:03.000Z,26.30
2019-04-20T23:07:52.666Z,26.70
2019-04-20T23:10:45.941Z,25.20
2019-04-20T23:13:37.788Z,25.53
2019-04-20T23:16:22.929Z,25.23
2019-04-20T23:18:54.096Z,21.70
2019-04-20T23:21:48.628Z,23.70
2019-04-20T23:24:35.219Z,26.20
2019-04-20T23:27:31.149Z,21.40
2019-04-20T23:30:23.612Z,26.20
2019-04-20T23:33:07.715Z,23.53
2019-04-20T23:36:01.095Z,25.40
2019-04-20T23:38:52.692Z,26.17
2019-04-20T23:41:42.623Z,24.97
2019-04-20T23:44:52.079Z,28.27
2019-04-20T23:47:47.892Z,25.70
2019-04-20T23:50:46.571Z,24.77
2019-04-20T23:53:37.360Z,28.30
2019-04-20T23:56:17.011Z,23.57
2019-04-20T23:59:04.437Z,28.57
